createdAt,value
2018-06-14T00:00:57.929Z,70.37
2018-06-14T00:03:27.958Z,68.76
2018-06-14T00:06:01.269Z,69.04
2018-06-14T00:08:30.985Z,68.62
2018-06-14T00:11:00.307Z,70.53
2018-06-14T00:13:30.195Z,68.80
2018-06-14T00:16:02.812Z,68.53
2018-06-14T00:18:32.143Z,68.06
2018-06-14T00:21:01.445Z,66.46
2018-06-14T00:23:31.083Z,66.66
2018-06-14T00:26:00.403Z,67.53
2018-06-14T00:28:29.715Z,67.72
2018-06-14T00:30:59.024Z,67.18
2018-06-14T00:33:29.372Z,66.92
2018-06-14T00:35:59.023Z,70.34
2018-06-14T00:38:29.330Z,71.76
2018-06-14T00:40:58.991Z,72.65
2018-06-14T00:43:28.320Z,72.70
2018-06-14T00:45:58.008Z,72.60
2018-06-14T00:48:27.296Z,72.10
2018-06-14T00:50:57.157Z,72.27
2018-06-14T00:53:26.764Z,72.00
2018-06-14T00:55:57.837Z,72.58
2018-06-14T00:58:27.617Z,73.05
2018-06-14T01:00:56.927Z,74.42
2018-06-14T01:03:26.672Z,74.06
2018-06-14T01:05:55.988Z,73.91
2018-06-14T01:08:25.742Z,74.16
2018-06-14T01:10:55.083Z,73.81
2018-06-14T01:13:24.394Z,73.92
2018-06-14T01:15:53.743Z,74.53
2018-06-14T01:18:23.053Z,73.95
2018-06-14T01:20:52.438Z,73.86
2018-06-14T01:23:21.736Z,73.38
2018-06-14T01:25:51.144Z,73.43
2018-06-14T01:28:21.065Z,73.65
2018-06-14T01:30:50.837Z,73.56
2018-06-14T01:33:20.152Z,74.07
2018-06-14T01:35:49.463Z,73.90
2018-06-14T01:38:26.800Z,74.18
2018-06-14T01:40:56.763Z,74.27
2018-06-14T01:43:26.072Z,74.51
2018-06-14T01:45:55.406Z,75.18
2018-06-14T01:48:24.735Z,75.29
2018-06-14T01:50:54.634Z,75.09
2018-06-14T01:53:23.944Z,75.82
2018-06-14T01:55:53.344Z,75.98
2018-06-14T01:58:22.910Z,75.42
2018-06-14T02:00:52.555Z,76.03
2018-06-14T02:03:22.244Z,76.18
2018-06-14T02:05:51.548Z,76.36
2018-06-14T02:08:21.663Z,75.88
2018-06-14T02:10:51.464Z,76.22
2018-06-14T02:13:20.792Z,76.33
2018-06-14T02:15:50.119Z,76.17
2018-06-14T02:18:19.474Z,75.64
2018-06-14T02:20:48.808Z,75.56
2018-06-14T02:23:18.359Z,75.50
2018-06-14T02:25:47.689Z,75.96
2018-06-14T02:28:17.008Z,76.25
2018-06-14T02:30:46.402Z,77.04
2018-06-14T02:33:15.739Z,77.11
2018-06-14T02:35:45.113Z,76.81
2018-06-14T02:38:14.405Z,77.18
2018-06-14T02:40:43.776Z,77.92
2018-06-14T02:43:13.768Z,77.81
2018-06-14T02:45:43.389Z,78.18
2018-06-14T02:48:12.825Z,77.62
2018-06-14T02:50:42.502Z,77.33
2018-06-14T02:53:12.188Z,77.72
2018-06-14T02:55:41.595Z,78.17
2018-06-14T02:58:11.138Z,78.15
2018-06-14T03:00:40.461Z,78.09
2018-06-14T03:03:10.011Z,77.85
2018-06-14T03:05:41.151Z,78.07
2018-06-14T03:08:10.446Z,78.18
2018-06-14T03:10:39.766Z,78.27
2018-06-14T03:13:09.348Z,78.61
2018-06-14T03:15:39.479Z,79.23
2018-06-14T03:18:08.765Z,79.10
2018-06-14T03:20:38.474Z,78.97
2018-06-14T03:23:07.809Z,79.19
2018-06-14T03:25:37.978Z,79.19
2018-06-14T03:28:07.321Z,79.15
2018-06-14T03:30:36.692Z,78.80
2018-06-14T03:33:06.055Z,79.80
2018-06-14T03:35:35.618Z,79.88
2018-06-14T03:38:04.957Z,79.83
2018-06-14T03:40:34.316Z,80.13
2018-06-14T03:43:03.679Z,79.74
2018-06-14T03:45:33.355Z,80.10
2018-06-14T03:48:02.657Z,79.44
2018-06-14T03:50:32.324Z,79.46
2018-06-14T03:53:01.648Z,79.34
2018-06-14T03:55:31.603Z,79.57
2018-06-14T03:58:00.874Z,79.92
2018-06-14T04:00:30.533Z,80.04
2018-06-14T04:03:00.845Z,79.52
2018-06-14T04:05:31.227Z,79.16
2018-06-14T04:08:00.556Z,78.39
2018-06-14T04:10:30.313Z,78.53
2018-06-14T04:12:59.640Z,78.46
2018-06-14T04:15:29.288Z,78.46
2018-06-14T04:18:04.668Z,78.10
2018-06-14T04:20:35.191Z,77.73
2018-06-14T04:23:04.458Z,77.81
2018-06-14T04:25:34.824Z,78.36
2018-06-14T04:28:04.753Z,78.15
2018-06-14T04:30:34.915Z,78.48
2018-06-14T04:33:04.608Z,79.02
2018-06-14T04:35:33.921Z,78.33
2018-06-14T04:38:03.270Z,78.15
2018-06-14T04:40:32.622Z,77.43
2018-06-14T04:43:02.408Z,77.58
2018-06-14T04:45:31.710Z,77.81
2018-06-14T04:48:03.880Z,77.27
2018-06-14T04:50:33.255Z,76.66
2018-06-14T04:53:02.591Z,76.65
2018-06-14T04:55:32.264Z,76.26
2018-06-14T04:58:02.169Z,76.26
2018-06-14T05:00:32.005Z,75.71
2018-06-14T05:03:01.785Z,75.33
2018-06-14T05:05:31.497Z,75.78
2018-06-14T05:08:00.829Z,75.79
2018-06-14T05:10:30.383Z,75.66
2018-06-14T05:12:59.713Z,75.31
2018-06-14T05:15:29.100Z,75.33
2018-06-14T05:17:58.855Z,75.44
2018-06-14T05:20:28.533Z,76.03
2018-06-14T05:22:58.324Z,75.98
2018-06-14T05:25:28.118Z,76.16
2018-06-14T05:27:58.318Z,75.82
2018-06-14T05:30:27.621Z,75.89
2018-06-14T05:32:57.521Z,76.26
2018-06-14T05:35:27.369Z,75.91
2018-06-14T05:37:57.053Z,75.61
2018-06-14T05:40:26.420Z,74.86
2018-06-14T05:42:55.757Z,74.81
2018-06-14T05:45:25.409Z,75.17
2018-06-14T05:47:54.795Z,74.57
2018-06-14T05:50:24.554Z,74.77
2018-06-14T05:52:54.450Z,74.80
2018-06-14T05:55:24.233Z,74.33
2018-06-14T05:57:53.929Z,73.58
2018-06-14T06:00:23.341Z,73.93
2018-06-14T06:02:52.847Z,73.86
2018-06-14T06:05:22.505Z,72.87
2018-06-14T06:07:52.261Z,72.24
2018-06-14T06:10:21.898Z,72.49
2018-06-14T06:12:51.635Z,72.16
2018-06-14T06:15:21.260Z,72.21
2018-06-14T06:17:51.892Z,71.70
2018-06-14T06:20:21.233Z,71.21
2018-06-14T06:22:51.187Z,69.62
2018-06-14T06:25:21.136Z,69.25
2018-06-14T06:27:50.732Z,68.94
2018-06-14T06:30:20.423Z,69.43
2018-06-14T06:32:49.773Z,69.03
2018-06-14T06:35:19.100Z,68.79
2018-06-14T06:37:48.672Z,68.91
2018-06-14T06:40:18.670Z,68.82
2018-06-14T06:42:47.978Z,68.46
2018-06-14T06:45:17.549Z,67.21
2018-06-14T06:47:46.871Z,66.19
2018-06-14T06:50:16.580Z,65.45
2018-06-14T06:52:45.928Z,65.30
2018-06-14T06:55:15.591Z,64.94
2018-06-14T06:57:45.311Z,64.12
2018-06-14T07:00:15.283Z,63.09
2018-06-14T07:02:46.059Z,61.20
2018-06-14T07:05:15.401Z,60.91
2018-06-14T07:07:45.018Z,60.08
2018-06-14T07:10:14.325Z,61.07
2018-06-14T07:12:44.045Z,60.77
2018-06-14T07:15:13.828Z,60.63
2018-06-14T07:17:43.286Z,60.03
2018-06-14T07:20:12.974Z,59.86
2018-06-14T07:22:42.754Z,60.35
2018-06-14T07:25:12.067Z,60.27
2018-06-14T07:27:41.424Z,59.31
2018-06-14T07:30:10.729Z,59.84
2018-06-14T07:32:40.070Z,59.08
2018-06-14T07:35:10.692Z,58.86
2018-06-14T07:37:40.027Z,60.00
2018-06-14T07:40:09.363Z,60.82
2018-06-14T07:42:38.973Z,59.08
2018-06-14T07:45:08.363Z,59.23
2018-06-14T07:47:38.382Z,58.54
2018-06-14T07:50:07.706Z,59.69
2018-06-14T07:52:37.056Z,58.36
2018-06-14T07:55:06.353Z,57.50
2018-06-14T07:57:35.685Z,57.34
2018-06-14T08:00:05.837Z,56.08
2018-06-14T08:02:35.384Z,57.36
2018-06-14T08:05:05.391Z,57.06
2018-06-14T08:07:34.754Z,59.95
2018-06-14T08:10:04.108Z,59.93
2018-06-14T08:12:34.891Z,58.99
2018-06-14T08:15:04.398Z,59.68
2018-06-14T08:17:34.185Z,59.36
2018-06-14T08:20:04.099Z,58.87
2018-06-14T08:22:33.448Z,59.16
2018-06-14T08:25:03.612Z,58.91
2018-06-14T08:27:32.937Z,57.22
2018-06-14T08:30:02.243Z,55.80
2018-06-14T08:32:31.668Z,55.22
2018-06-14T08:35:01.324Z,54.40
2018-06-14T08:37:31.256Z,55.24
2018-06-14T08:40:00.599Z,55.23
2018-06-14T08:42:29.965Z,53.91
2018-06-14T08:44:59.298Z,54.81
2018-06-14T08:47:28.624Z,52.37
2018-06-14T08:49:57.969Z,54.54
2018-06-14T08:52:27.337Z,52.49
2018-06-14T08:54:57.513Z,54.98
2018-06-14T08:57:27.099Z,55.94
2018-06-14T08:59:56.452Z,55.21
2018-06-14T09:02:25.748Z,56.18
2018-06-14T09:04:55.475Z,57.00
2018-06-14T09:07:24.872Z,56.65
2018-06-14T09:09:54.242Z,57.00
2018-06-14T09:12:23.616Z,57.80
2018-06-14T09:14:53.696Z,56.88
2018-06-14T09:17:23.019Z,53.66
2018-06-14T09:19:52.341Z,54.61
2018-06-14T09:22:22.003Z,54.02
2018-06-14T09:24:51.683Z,54.95
2018-06-14T09:27:21.017Z,53.96
2018-06-14T09:29:50.405Z,53.81
2018-06-14T09:32:19.700Z,54.06
2018-06-14T09:34:49.051Z,55.26
2018-06-14T09:37:18.872Z,54.81
2018-06-14T09:39:48.202Z,55.40
2018-06-14T09:42:17.722Z,55.03
2018-06-14T09:44:47.355Z,54.36
2018-06-14T09:47:17.127Z,53.69
2018-06-14T09:49:46.922Z,53.95
2018-06-14T09:52:16.256Z,53.85
2018-06-14T09:54:45.838Z,53.22
2018-06-14T09:57:15.417Z,52.84
2018-06-14T09:59:44.776Z,52.06
2018-06-14T10:02:14.201Z,52.38
2018-06-14T10:04:44.117Z,51.85
2018-06-14T10:07:13.423Z,53.39
2018-06-14T10:09:42.756Z,52.96
2018-06-14T10:12:12.099Z,52.83
2018-06-14T10:14:41.454Z,51.29
2018-06-14T10:17:11.834Z,49.72
2018-06-14T10:19:41.166Z,50.59
2018-06-14T10:22:10.721Z,47.90
2018-06-14T10:24:40.069Z,46.43
2018-06-14T10:27:09.826Z,46.17
2018-06-14T10:29:39.144Z,48.13
2018-06-14T10:32:08.887Z,46.80
2018-06-14T10:34:38.326Z,45.17
2018-06-14T10:37:07.629Z,44.80
2018-06-14T10:39:37.085Z,45.50
2018-06-14T10:42:06.374Z,44.00
2018-06-14T10:44:35.943Z,42.60
2018-06-14T10:47:05.567Z,41.43
2018-06-14T10:49:34.986Z,46.19
2018-06-14T10:52:06.381Z,46.36
2018-06-14T10:54:35.745Z,45.83
2018-06-14T10:57:05.332Z,47.90
2018-06-14T10:59:34.694Z,47.11
2018-06-14T11:02:04.068Z,47.77
2018-06-14T11:04:33.422Z,46.60
2018-06-14T11:07:02.733Z,44.28
2018-06-14T11:09:32.081Z,44.19
2018-06-14T11:12:01.391Z,44.13
2018-06-14T11:14:31.115Z,44.16
2018-06-14T11:17:02.568Z,44.03
2018-06-14T11:19:32.236Z,44.40
2018-06-14T11:22:02.161Z,46.19
2018-06-14T11:24:31.490Z,45.35
2018-06-14T11:27:01.163Z,43.22
2018-06-14T11:29:30.528Z,42.33
2018-06-14T11:31:59.836Z,42.73
2018-06-14T11:34:29.182Z,42.22
2018-06-14T11:36:58.884Z,41.66
2018-06-14T11:39:28.565Z,39.56
2018-06-14T11:41:57.919Z,40.32
2018-06-14T11:44:27.352Z,40.57
2018-06-14T11:46:56.656Z,40.38
2018-06-14T11:49:26.364Z,39.82
2018-06-14T11:51:55.688Z,38.94
2018-06-14T11:54:25.358Z,40.41
2018-06-14T11:56:55.421Z,42.31
2018-06-14T11:59:25.277Z,41.49
2018-06-14T12:01:54.690Z,39.21
2018-06-14T12:04:24.042Z,39.98
2018-06-14T12:06:53.749Z,40.18
2018-06-14T12:09:23.437Z,39.78
2018-06-14T12:11:53.036Z,40.25
2018-06-14T12:14:22.966Z,37.72
2018-06-14T12:16:52.559Z,37.03
2018-06-14T12:19:21.899Z,37.58
2018-06-14T12:21:51.704Z,39.46
2018-06-14T12:24:21.047Z,38.30
2018-06-14T12:26:50.911Z,38.32
2018-06-14T12:29:20.726Z,39.71
2018-06-14T12:31:50.254Z,38.82
2018-06-14T12:34:19.677Z,38.34
2018-06-14T12:36:49.018Z,40.81
2018-06-14T12:39:18.404Z,39.87
2018-06-14T12:41:47.721Z,41.21
2018-06-14T12:44:17.076Z,39.34
2018-06-14T12:46:46.374Z,37.86
2018-06-14T12:49:15.719Z,40.48
2018-06-14T12:51:45.361Z,39.89
2018-06-14T12:54:14.665Z,41.93
2018-06-14T12:56:43.996Z,40.05
2018-06-14T12:59:13.329Z,41.08
2018-06-14T13:01:42.685Z,37.92
2018-06-14T13:04:12.502Z,37.53
2018-06-14T13:06:41.833Z,36.10
2018-06-14T13:09:12.881Z,36.84
2018-06-14T13:11:42.544Z,37.17
2018-06-14T13:14:12.285Z,37.95
2018-06-14T13:16:42.040Z,37.67
2018-06-14T13:19:11.366Z,37.33
2018-06-14T13:21:41.046Z,35.54
2018-06-14T13:24:10.345Z,36.54
2018-06-14T13:26:40.512Z,36.92
2018-06-14T13:29:09.826Z,35.62
2018-06-14T13:31:39.618Z,35.00
2018-06-14T13:34:09.675Z,35.51
2018-06-14T13:36:40.008Z,38.30
2018-06-14T13:39:09.615Z,39.96
2018-06-14T13:41:38.965Z,39.49
2018-06-14T13:44:08.269Z,40.08
2018-06-14T13:46:40.733Z,40.46
2018-06-14T13:49:10.627Z,38.04
2018-06-14T13:51:40.831Z,36.89
2018-06-14T13:54:10.694Z,36.88
2018-06-14T13:56:40.563Z,38.43
2018-06-14T13:59:09.874Z,37.79
2018-06-14T14:01:39.242Z,39.49
2018-06-14T14:04:08.969Z,39.35
2018-06-14T14:06:38.710Z,36.97
2018-06-14T14:09:10.472Z,36.65
2018-06-14T14:11:40.169Z,36.92
2018-06-14T14:14:09.835Z,36.54
2018-06-14T14:16:39.577Z,37.77
2018-06-14T14:19:09.264Z,39.16
2018-06-14T14:21:38.897Z,36.73
2018-06-14T14:24:08.237Z,36.00
2018-06-14T14:26:37.586Z,35.76
2018-06-14T14:29:07.165Z,39.67
2018-06-14T14:31:36.816Z,37.81
2018-06-14T14:34:06.519Z,36.41
2018-06-14T14:36:35.860Z,37.16
2018-06-14T14:39:08.048Z,37.19
2018-06-14T14:41:37.493Z,36.71
2018-06-14T14:44:06.905Z,38.62
2018-06-14T14:46:36.792Z,40.84
2018-06-14T14:49:06.739Z,37.39
2018-06-14T14:51:36.346Z,38.94
2018-06-14T14:54:05.701Z,39.10
2018-06-14T14:56:35.958Z,39.10
2018-06-14T14:59:05.338Z,39.78
2018-06-14T15:01:34.919Z,39.00
2018-06-14T15:04:05.444Z,40.33
2018-06-14T15:06:35.261Z,38.44
2018-06-14T15:09:06.888Z,37.78
2018-06-14T15:11:36.467Z,38.18
2018-06-14T15:14:06.894Z,40.03
2018-06-14T15:16:38.375Z,38.87
2018-06-14T15:19:07.940Z,38.94
2018-06-14T15:21:37.303Z,38.35
2018-06-14T15:24:06.916Z,38.74
2018-06-14T15:26:36.555Z,39.68
2018-06-14T15:29:06.260Z,39.30
2018-06-14T15:31:35.604Z,39.75
2018-06-14T15:34:04.985Z,40.55
2018-06-14T15:36:34.334Z,40.40
2018-06-14T15:39:03.781Z,39.88
2018-06-14T15:41:33.744Z,39.36
2018-06-14T15:44:03.045Z,38.97
2018-06-14T15:46:32.752Z,38.48
2018-06-14T15:49:02.538Z,37.61
2018-06-14T15:51:32.108Z,37.98
2018-06-14T15:54:01.409Z,38.38
2018-06-14T15:56:38.255Z,39.30
2018-06-14T15:59:10.646Z,40.38
2018-06-14T16:01:40.398Z,41.97
2018-06-14T16:04:09.969Z,41.32
2018-06-14T16:06:39.327Z,40.62
2018-06-14T16:09:10.002Z,41.01
2018-06-14T16:11:39.723Z,42.17
2018-06-14T16:14:09.024Z,41.22
2018-06-14T16:16:39.102Z,40.45
2018-06-14T16:19:08.505Z,42.67
2018-06-14T16:21:37.843Z,42.02
2018-06-14T16:24:07.145Z,41.87
2018-06-14T16:26:36.476Z,41.95
2018-06-14T16:29:06.104Z,43.02
2018-06-14T16:31:35.420Z,41.91
2018-06-14T16:34:05.589Z,42.39
2018-06-14T16:36:34.904Z,44.56
2018-06-14T16:39:06.647Z,44.95
2018-06-14T16:41:35.990Z,43.08
2018-06-14T16:44:05.313Z,44.65
2018-06-14T16:46:34.719Z,44.04
2018-06-14T16:49:04.334Z,42.51
2018-06-14T16:51:34.003Z,43.51
2018-06-14T16:54:03.341Z,43.25
2018-06-14T16:56:32.683Z,44.51
2018-06-14T16:59:02.067Z,44.49
2018-06-14T17:01:31.858Z,43.34
2018-06-14T17:04:01.405Z,43.06
2018-06-14T17:06:30.721Z,43.01
2018-06-14T17:09:00.580Z,43.55
2018-06-14T17:11:30.532Z,43.09
2018-06-14T17:13:59.897Z,42.92
2018-06-14T17:16:29.214Z,43.11
2018-06-14T17:18:59.470Z,43.49
2018-06-14T17:21:29.271Z,44.26
2018-06-14T17:23:58.904Z,44.42
2018-06-14T17:26:28.946Z,44.41
2018-06-14T17:28:58.907Z,45.25
2018-06-14T17:31:28.189Z,46.52
2018-06-14T17:33:57.899Z,48.22
2018-06-14T17:36:27.500Z,46.46
2018-06-14T17:38:56.847Z,45.91
2018-06-14T17:41:27.314Z,45.74
2018-06-14T17:43:56.938Z,47.40
2018-06-14T17:46:26.277Z,48.27
2018-06-14T17:48:56.672Z,47.24
2018-06-14T17:51:26.001Z,47.03
2018-06-14T17:53:55.627Z,47.51
2018-06-14T17:56:25.316Z,49.60
2018-06-14T17:58:54.677Z,50.45
2018-06-14T18:01:23.979Z,49.40
2018-06-14T18:03:53.380Z,48.55
2018-06-14T18:06:23.710Z,47.26
2018-06-14T18:08:53.487Z,46.89
2018-06-14T18:11:22.877Z,47.77
2018-06-14T18:13:52.429Z,47.84
2018-06-14T18:16:21.723Z,47.57
2018-06-14T18:18:51.126Z,47.76
2018-06-14T18:21:21.364Z,47.77
2018-06-14T18:23:50.686Z,48.18
2018-06-14T18:26:20.465Z,48.71
2018-06-14T18:28:50.533Z,47.80
2018-06-14T18:31:20.481Z,47.88
2018-06-14T18:33:49.848Z,48.11
2018-06-14T18:36:19.190Z,48.34
2018-06-14T18:38:49.780Z,47.59
2018-06-14T18:41:19.102Z,48.74
2018-06-14T18:43:48.968Z,48.29
2018-06-14T18:46:18.669Z,48.37
2018-06-14T18:48:48.233Z,47.58
2018-06-14T18:51:17.556Z,48.42
2018-06-14T18:53:48.044Z,47.75
2018-06-14T18:56:17.769Z,47.83
2018-06-14T18:58:48.118Z,47.83
2018-06-14T19:01:17.435Z,48.09
2018-06-14T19:03:47.096Z,48.37
2018-06-14T19:06:16.419Z,49.05
2018-06-14T19:08:45.753Z,48.78
2018-06-14T19:11:15.106Z,48.59
2018-06-14T19:13:44.729Z,48.72
2018-06-14T19:16:14.465Z,48.75
2018-06-14T19:18:44.374Z,48.38
2018-06-14T19:21:13.960Z,49.83
2018-06-14T19:23:43.686Z,50.23
2018-06-14T19:26:13.413Z,51.17
2018-06-14T19:28:42.748Z,52.38
2018-06-14T19:31:12.341Z,53.49
2018-06-14T19:33:41.904Z,54.74
2018-06-14T19:36:11.215Z,54.44
2018-06-14T19:38:41.074Z,54.39
2018-06-14T19:41:10.629Z,53.74
2018-06-14T19:43:40.029Z,53.93
2018-06-14T19:46:09.453Z,53.80
2018-06-14T19:48:38.809Z,56.24
2018-06-14T19:51:08.125Z,57.59
2018-06-14T19:53:37.452Z,56.89
2018-06-14T19:56:06.776Z,56.38
2018-06-14T19:58:36.568Z,59.38
2018-06-14T20:01:06.189Z,62.04
2018-06-14T20:03:35.776Z,65.18
2018-06-14T20:06:05.473Z,67.26
2018-06-14T20:08:35.300Z,68.97
2018-06-14T20:11:04.619Z,70.46
2018-06-14T20:13:34.402Z,70.94
2018-06-14T20:16:04.011Z,71.81
2018-06-14T20:18:33.699Z,72.20
2018-06-14T20:21:03.845Z,73.18
2018-06-14T20:23:33.217Z,73.45
2018-06-14T20:26:06.056Z,73.86
2018-06-14T20:28:35.531Z,73.97
2018-06-14T20:31:05.153Z,74.31
2018-06-14T20:33:34.506Z,74.88
2018-06-14T20:36:03.864Z,75.47
2018-06-14T20:38:35.613Z,75.42
2018-06-14T20:41:05.564Z,76.14
2018-06-14T20:43:35.366Z,76.31
2018-06-14T20:46:04.755Z,76.01
2018-06-14T20:48:34.566Z,76.87
2018-06-14T20:51:04.220Z,77.16
2018-06-14T20:53:33.663Z,76.72
2018-06-14T20:56:03.621Z,77.11
2018-06-14T20:58:32.966Z,77.21
2018-06-14T21:01:03.200Z,77.53
2018-06-14T21:03:32.548Z,77.07
2018-06-14T21:06:02.303Z,78.14
2018-06-14T21:08:31.638Z,78.43
2018-06-14T21:11:01.015Z,78.91
2018-06-14T21:13:30.437Z,78.15
2018-06-14T21:16:00.674Z,79.04
2018-06-14T21:18:30.351Z,77.59
2018-06-14T21:20:59.744Z,77.08
2018-06-14T21:23:29.061Z,77.20
2018-06-14T21:25:58.434Z,77.38
2018-06-14T21:28:28.176Z,77.48
2018-06-14T21:30:58.147Z,78.18
2018-06-14T21:33:27.912Z,77.85
2018-06-14T21:35:57.231Z,78.42
2018-06-14T21:38:26.550Z,78.21
2018-06-14T21:40:56.705Z,78.25
2018-06-14T21:43:26.271Z,78.06
2018-06-14T21:45:56.426Z,78.18
2018-06-14T21:48:26.601Z,78.49
2018-06-14T21:50:57.185Z,78.58
2018-06-14T21:53:26.476Z,78.68
2018-06-14T21:55:55.872Z,78.64
2018-06-14T21:58:25.520Z,78.90
2018-06-14T22:00:55.180Z,78.30
2018-06-14T22:03:29.968Z,78.46
2018-06-14T22:05:59.285Z,78.99
2018-06-14T22:08:28.608Z,78.75
2018-06-14T22:10:57.982Z,79.02
2018-06-14T22:13:27.664Z,79.11
2018-06-14T22:15:57.334Z,78.61
2018-06-14T22:18:26.631Z,78.19
2018-06-14T22:20:56.026Z,78.38
2018-06-14T22:23:26.327Z,77.99
2018-06-14T22:25:55.684Z,77.49
2018-06-14T22:28:25.823Z,77.22
2018-06-14T22:30:55.157Z,78.04
2018-06-14T22:33:36.292Z,78.21
2018-06-14T22:36:05.668Z,78.01
2018-06-14T22:38:35.813Z,78.75
2018-06-14T22:41:05.471Z,79.03
2018-06-14T22:43:36.355Z,79.19
2018-06-14T22:46:05.923Z,80.13
2018-06-14T22:48:35.291Z,79.07
2018-06-14T22:51:13.830Z,79.10
2018-06-14T22:53:43.127Z,79.15
2018-06-14T22:56:12.547Z,79.29
2018-06-14T22:58:42.724Z,80.18
2018-06-14T23:01:31.083Z,82.04
2018-06-14T23:04:01.241Z,81.10
2018-06-14T23:06:31.023Z,80.87
2018-06-14T23:11:19.223Z,81.41
2018-06-14T23:13:49.061Z,81.24
2018-06-14T23:16:18.820Z,80.52
2018-06-14T23:18:48.457Z,80.41
2018-06-14T23:21:19.185Z,80.90
2018-06-14T23:23:49.079Z,80.08
2018-06-14T23:26:19.456Z,79.42
2018-06-14T23:28:48.772Z,79.23
2018-06-14T23:31:18.127Z,80.33
2018-06-14T23:33:47.793Z,80.96
2018-06-14T23:36:17.123Z,80.79
2018-06-14T23:38:46.726Z,80.74
2018-06-14T23:41:16.420Z,80.73
2018-06-14T23:43:47.880Z,80.90
2018-06-14T23:46:17.902Z,80.61
2018-06-14T23:48:47.211Z,81.25
2018-06-14T23:51:16.546Z,81.61
2018-06-14T23:53:46.112Z,81.69
2018-06-14T23:56:16.527Z,80.43
2018-06-14T23:58:45.853Z,80.12
